EDQM

Hof-Plauen Airport

Hof, Germany
METAR EDQM 161850Z 21011KT CAVOK 01/M01 Q1006
Observed Flight Rules
Jan-16 @ 18:50 UTC (33 minutes ago) Visual Flight Rules
Wind Visibility Clouds
210° at 11 knots 10,000+ meters
  • Clear skies
Temperatures Readings
Current 1°C / 34°F
Dewpoint -1°C / 30°F
Humidity 87%
Altimeter 29.7" Hg
Pressure 1005.92 hPa
Elevation 568
METAR EDQM 161850Z 21011KT CAVOK 01/M01 Q1006
Observed Flight Rules
Jan-16 @ 18:50 UTC
(33 minutes ago)
VFR
Wind Visibility
210° at 11 knots 10,000+ meters
Clouds
  • Clear skies
Temperature Dewpoint
1°C / 34°F -1°C / 30°F
Humidity Altimeter Pressure
87% 29.7" Hg 1005.92 hPa